Time;durP1;ratioP1;P1;durP2;ratioP2;P2;SDS_P1;SDS_P2;PMS_P1;PMS_P2;Temp;Humidity;BMP_temperature;BMP_pressure;BME280_temperature;BME280_humidity;BME280_pressure;Samples;Min_cycle;Max_cycle;Signal;HPM_P1;HPM_P2
2022/06/29 00:00:27;;;;;;;0.73;0.20;;;17.90;60.30;;;;;;4964367;28;20035;-74
2022/06/29 00:02:53;;;;;;;1.77;0.77;;;17.80;60.20;;;;;;4956073;28;20027;-74
2022/06/29 00:05:21;;;;;;;0.55;0.30;;;17.80;60.20;;;;;;4959954;28;20035;-74
2022/06/29 00:07:48;;;;;;;0.77;0.40;;;17.80;60.20;;;;;;4964592;28;20292;-74
2022/06/29 00:10:14;;;;;;;1.40;0.40;;;17.80;60.30;;;;;;4963333;28;20594;-73
2022/06/29 00:12:42;;;;;;;2.60;1.10;;;17.80;60.40;;;;;;4929991;28;20031;-74
2022/06/29 00:15:09;;;;;;;1.52;0.50;;;17.80;60.50;;;;;;4953112;28;20035;-75
2022/06/29 00:17:35;;;;;;;1.23;0.40;;;17.80;60.50;;;;;;4965501;28;20490;-75
2022/06/29 00:20:04;;;;;;;1.70;0.38;;;17.80;60.50;;;;;;4964108;28;20548;-75
2022/06/29 00:22:31;;;;;;;1.55;0.35;;;17.80;60.60;;;;;;4961059;28;20038;-75
2022/06/29 00:24:57;;;;;;;0.30;0.20;;;17.80;60.60;;;;;;4961155;28;20042;-74
2022/06/29 00:27:23;;;;;;;1.48;0.40;;;17.80;60.70;;;;;;4953529;28;20363;-74
2022/06/29 00:29:50;;;;;;;0.47;0.28;;;17.80;60.60;;;;;;4977422;28;20575;-74
2022/06/29 00:32:16;;;;;;;1.08;0.30;;;17.80;60.70;;;;;;4961751;28;20082;-74
2022/06/29 00:34:42;;;;;;;1.13;0.50;;;17.80;60.70;;;;;;4962965;28;20038;-74
2022/06/29 00:37:08;;;;;;;0.50;0.30;;;17.80;60.80;;;;;;4961693;28;20034;-75
2022/06/29 00:39:34;;;;;;;2.55;0.60;;;17.80;60.80;;;;;;4962110;28;20027;-75
2022/06/29 00:42:00;;;;;;;0.55;0.30;;;17.80;60.90;;;;;;4943958;28;20054;-74
2022/06/29 00:44:26;;;;;;;0.95;0.30;;;17.80;60.90;;;;;;4982840;28;20256;-75
2022/06/29 00:46:55;;;;;;;0.47;0.20;;;17.80;61.00;;;;;;4961016;28;20019;-74
2022/06/29 00:49:23;;;;;;;0.82;0.47;;;17.80;61.10;;;;;;4964351;28;20050;-75
2022/06/29 00:52:02;;;;;;;0.98;0.40;;;17.80;61.10;;;;;;4967578;28;20125;-75
2022/06/29 00:54:39;;;;;;;1.13;0.70;;;17.80;61.20;;;;;;4951202;28;20664;-75
2022/06/29 00:57:22;;;;;;;0.90;0.30;;;17.80;61.10;;;;;;4962988;28;20022;-75
2022/06/29 00:59:54;;;;;;;0.75;0.43;;;17.80;61.20;;;;;;4962605;28;20552;-75
2022/06/29 01:02:22;;;;;;;0.60;0.30;;;17.80;61.20;;;;;;4968078;28;20098;-75
2022/06/29 01:04:49;;;;;;;0.28;0.13;;;17.80;61.20;;;;;;4968212;28;20118;-74
2022/06/29 01:07:18;;;;;;;0.47;0.30;;;17.80;61.20;;;;;;4965812;28;20030;-74
2022/06/29 01:09:45;;;;;;;0.68;0.30;;;17.80;61.40;;;;;;4967265;28;20039;-74
2022/06/29 01:12:11;;;;;;;0.65;0.40;;;17.80;61.40;;;;;;4981743;28;20031;-73
2022/06/29 01:14:41;;;;;;;0.65;0.20;;;17.80;61.40;;;;;;4941549;28;20031;-74
2022/06/29 01:17:07;;;;;;;1.02;0.43;;;17.80;61.50;;;;;;4967219;28;20333;-74
2022/06/29 01:19:34;;;;;;;0.82;0.40;;;17.80;61.50;;;;;;4967500;28;20290;-73
2022/06/29 01:22:08;;;;;;;0.60;0.57;;;17.70;61.40;;;;;;4966931;28;20038;-74
2022/06/29 01:24:34;;;;;;;2.67;0.52;;;17.70;61.50;;;;;;4962642;28;20502;-74
2022/06/29 01:26:59;;;;;;;1.42;0.35;;;17.70;61.40;;;;;;4959882;28;20102;-74
2022/06/29 01:29:27;;;;;;;0.80;0.32;;;17.70;61.50;;;;;;4962478;28;20529;-74
2022/06/29 01:31:56;;;;;;;0.25;0.20;;;17.70;61.50;;;;;;4960930;28;20026;-74
2022/06/29 01:34:24;;;;;;;0.30;0.30;;;17.70;61.60;;;;;;4959855;28;20043;-74
2022/06/29 01:36:50;;;;;;;0.75;0.60;;;17.60;61.40;;;;;;4967732;28;20042;-74
2022/06/29 01:44:52;;;;;;;1.45;0.47;;;17.50;61.50;;;;;;4921029;28;20453;-76
2022/06/29 01:47:18;;;;;;;1.85;0.50;;;17.50;61.40;;;;;;4926722;29;20349;-75
2022/06/29 01:49:44;;;;;;;1.33;0.50;;;17.40;61.40;;;;;;4935719;29;20042;-75
2022/06/29 01:52:10;;;;;;;1.20;0.50;;;17.40;61.50;;;;;;4950914;28;20046;-75
2022/06/29 01:54:36;;;;;;;1.38;0.77;;;17.40;61.60;;;;;;4957702;28;20105;-74
2022/06/29 01:57:02;;;;;;;1.75;0.55;;;17.30;61.50;;;;;;4956712;28;20035;-76
2022/06/29 01:59:28;;;;;;;1.10;0.43;;;17.30;61.60;;;;;;4953522;28;20082;-75
2022/06/29 02:01:54;;;;;;;2.15;0.60;;;17.30;61.60;;;;;;4948561;28;20462;-75
2022/06/29 02:04:21;;;;;;;1.42;0.57;;;17.20;61.50;;;;;;4947654;28;20107;-75
2022/06/29 02:06:47;;;;;;;1.65;0.85;;;17.20;61.60;;;;;;4948448;28;20494;-75
2022/06/29 02:09:13;;;;;;;2.75;1.50;;;17.20;61.70;;;;;;4952215;28;20035;-74
2022/06/29 02:11:39;;;;;;;3.45;1.30;;;17.10;61.60;;;;;;4943340;28;20105;-75
2022/06/29 02:14:05;;;;;;;1.17;0.47;;;17.10;61.60;;;;;;4942560;28;20137;-75
2022/06/29 02:16:31;;;;;;;3.28;0.60;;;17.10;61.70;;;;;;4946624;28;20106;-74
2022/06/29 02:18:57;;;;;;;1.73;0.60;;;17.00;61.60;;;;;;4950799;28;20031;-74
2022/06/29 02:21:23;;;;;;;1.98;0.88;;;17.00;61.60;;;;;;4948714;28;20031;-74
2022/06/29 02:23:49;;;;;;;0.90;0.40;;;17.00;61.70;;;;;;4949897;28;20042;-74
2022/06/29 02:26:15;;;;;;;2.17;0.70;;;16.90;61.60;;;;;;4928338;29;20059;-74
2022/06/29 02:28:41;;;;;;;4.53;1.40;;;16.90;61.70;;;;;;4949507;28;20123;-75
2022/06/29 02:36:36;;;;;;;1.67;0.73;;;16.80;61.60;;;;;;4901481;29;20052;-75
2022/06/29 02:39:02;;;;;;;4.13;1.35;;;16.70;61.50;;;;;;4942297;28;20096;-74
2022/06/29 02:41:29;;;;;;;1.55;0.70;;;16.70;61.60;;;;;;4947275;28;20114;-74
2022/06/29 02:43:55;;;;;;;3.95;0.98;;;16.70;61.70;;;;;;4924843;28;20059;-75
2022/06/29 02:46:21;;;;;;;3.70;1.00;;;16.60;61.60;;;;;;4949499;28;20395;-75
2022/06/29 02:48:46;;;;;;;2.33;0.80;;;16.60;61.70;;;;;;4942142;28;20500;-77
2022/06/29 02:51:12;;;;;;;3.00;0.88;;;16.50;61.60;;;;;;4928401;29;20604;-75
2022/06/29 02:53:38;;;;;;;3.40;0.95;;;16.50;61.70;;;;;;4941487;28;20110;-75
2022/06/29 02:56:04;;;;;;;3.65;0.88;;;16.50;61.70;;;;;;4945263;28;20027;-74
2022/06/29 02:58:30;;;;;;;2.30;1.33;;;16.50;62.30;;;;;;4941972;28;20019;-74
2022/06/29 03:00:56;;;;;;;3.28;1.58;;;16.50;61.80;;;;;;4921619;29;20511;-75
2022/06/29 03:03:22;;;;;;;3.15;1.20;;;16.50;61.90;;;;;;4919137;29;20028;-75
2022/06/29 03:05:48;;;;;;;3.20;1.35;;;16.50;61.90;;;;;;4926798;28;20139;-75
2022/06/29 03:08:13;;;;;;;3.20;1.15;;;16.40;61.70;;;;;;4940481;28;20127;-75
2022/06/29 03:10:39;;;;;;;5.13;1.40;;;16.40;62.30;;;;;;4940279;28;20431;-74
2022/06/29 03:13:05;;;;;;;5.55;2.28;;;16.40;61.80;;;;;;4935712;28;20019;-74
2022/06/29 03:15:31;;;;;;;3.40;1.00;;;16.40;61.80;;;;;;4948003;28;20027;-75
2022/06/29 03:17:57;;;;;;;4.90;1.15;;;16.40;61.90;;;;;;4925142;29;20587;-75
2022/06/29 03:20:23;;;;;;;3.60;1.30;;;16.40;61.90;;;;;;4945615;28;20408;-76
2022/06/29 03:22:50;;;;;;;2.17;1.15;;;16.40;61.90;;;;;;4920260;28;20028;-74
2022/06/29 03:25:16;;;;;;;2.70;1.48;;;16.40;61.90;;;;;;4936616;28;20031;-76
2022/06/29 03:27:43;;;;;;;5.78;1.63;;;16.30;61.80;;;;;;4937800;28;20031;-75
2022/06/29 03:30:10;;;;;;;3.63;1.50;;;16.30;61.80;;;;;;4945768;28;20080;-75
2022/06/29 03:32:36;;;;;;;4.10;1.30;;;16.30;61.80;;;;;;4927223;29;20027;-76
2022/06/29 03:35:02;;;;;;;2.45;1.55;;;16.30;61.90;;;;;;4944444;28;20394;-75
2022/06/29 03:37:28;;;;;;;4.45;1.30;;;16.30;61.90;;;;;;4911372;29;20035;-74
2022/06/29 03:39:54;;;;;;;3.38;1.17;;;16.30;61.90;;;;;;4911264;29;20038;-74
2022/06/29 03:42:20;;;;;;;5.90;2.20;;;16.30;62.50;;;;;;4942928;28;20042;-75
2022/06/29 03:44:46;;;;;;;4.53;1.83;;;16.20;61.80;;;;;;4937702;28;20071;-75
2022/06/29 03:47:12;;;;;;;4.05;1.92;;;16.20;61.80;;;;;;4948787;28;20049;-75
2022/06/29 03:49:38;;;;;;;2.80;1.33;;;16.20;61.80;;;;;;4933352;28;20171;-75
2022/06/29 03:52:05;;;;;;;5.63;1.90;;;16.20;61.90;;;;;;4924525;29;20122;-75
2022/06/29 03:54:32;;;;;;;4.32;1.83;;;16.20;61.90;;;;;;4934638;28;20090;-75
2022/06/29 03:56:58;;;;;;;4.38;1.73;;;16.20;61.90;;;;;;4940848;28;20035;-75
2022/06/29 03:59:24;;;;;;;5.13;2.30;;;16.20;62.00;;;;;;4948484;28;20035;-75
2022/06/29 04:01:50;;;;;;;3.53;1.63;;;16.20;62.00;;;;;;4945160;28;20015;-75
2022/06/29 04:04:16;;;;;;;8.02;1.60;;;16.20;62.00;;;;;;4935260;28;20131;-75
2022/06/29 04:06:42;;;;;;;2.72;1.33;;;16.10;61.80;;;;;;4942508;28;20035;-75
2022/06/29 04:09:08;;;;;;;6.38;2.33;;;16.20;62.10;;;;;;4930034;29;20043;-75
2022/06/29 04:11:49;;;;;;;4.30;1.27;;;16.20;62.10;;;;;;4944714;28;20031;-75
2022/06/29 04:14:15;;;;;;;4.57;1.92;;;16.20;62.10;;;;;;4942914;28;20043;-75
2022/06/29 04:16:41;;;;;;;3.72;1.40;;;16.20;62.60;;;;;;4950323;28;20107;-75
2022/06/29 04:19:08;;;;;;;4.03;1.85;;;16.20;62.10;;;;;;4944352;28;20186;-75
2022/06/29 04:21:33;;;;;;;3.70;1.38;;;16.20;62.10;;;;;;4947053;28;20036;-75
2022/06/29 04:23:59;;;;;;;3.40;2.08;;;16.20;62.10;;;;;;4947885;28;20129;-76
2022/06/29 04:26:25;;;;;;;4.38;1.55;;;16.20;62.10;;;;;;4950506;28;20062;-74
2022/06/29 04:28:51;;;;;;;4.93;1.83;;;16.20;62.10;;;;;;4942445;29;20402;-75
2022/06/29 04:31:17;;;;;;;4.32;1.50;;;16.20;62.10;;;;;;4948570;28;20042;-76
2022/06/29 04:33:43;;;;;;;7.20;2.35;;;16.20;62.10;;;;;;4932205;29;20027;-76
2022/06/29 04:36:09;;;;;;;7.18;3.47;;;16.20;62.10;;;;;;4947650;28;20040;-75
2022/06/29 04:38:35;;;;;;;4.45;1.45;;;16.30;62.20;;;;;;4952375;28;20030;-76
2022/06/29 04:41:01;;;;;;;6.10;1.70;;;16.30;62.20;;;;;;4928241;28;20065;-75
2022/06/29 04:43:29;;;;;;;3.92;1.73;;;16.30;62.20;;;;;;4947581;28;20047;-75
2022/06/29 04:48:41;;;;;;;4.07;1.90;;;16.30;62.10;;;;;;4944472;28;20325;-74
2022/06/29 04:51:07;;;;;;;4.28;1.90;;;16.30;62.00;;;;;;4947467;28;20359;-74
2022/06/29 04:53:33;;;;;;;4.10;1.67;;;16.30;62.00;;;;;;4941136;28;20042;-76
2022/06/29 04:56:00;;;;;;;7.35;2.20;;;16.40;62.20;;;;;;4940748;28;20327;-76
2022/06/29 04:58:26;;;;;;;4.22;1.70;;;16.40;62.20;;;;;;4923436;29;20765;-75
2022/06/29 05:00:53;;;;;;;5.30;2.30;;;16.40;62.20;;;;;;4941334;28;20023;-74
2022/06/29 05:03:18;;;;;;;3.78;1.80;;;16.40;62.20;;;;;;4923464;28;20042;-76
2022/06/29 05:05:47;;;;;;;6.07;2.22;;;16.40;62.70;;;;;;4947636;28;20023;-76
2022/06/29 05:08:14;;;;;;;5.65;2.45;;;16.40;62.10;;;;;;4940032;28;20310;-75
2022/06/29 05:10:41;;;;;;;7.93;2.53;;;16.40;62.10;;;;;;4925305;28;20047;-76
2022/06/29 05:13:10;;;;;;;5.65;2.20;;;16.50;62.20;;;;;;4930763;28;20063;-76
2022/06/29 05:15:39;;;;;;;4.07;1.77;;;16.50;62.20;;;;;;4921880;29;20506;-76
2022/06/29 05:18:06;;;;;;;7.57;2.53;;;16.50;62.20;;;;;;4940715;28;20039;-76
2022/06/29 05:20:32;;;;;;;5.40;1.83;;;16.50;62.20;;;;;;4941673;28;20031;-76
2022/06/29 05:22:58;;;;;;;3.70;1.83;;;16.60;62.30;;;;;;4920099;29;20039;-76
2022/06/29 05:25:24;;;;;;;6.18;1.95;;;16.60;62.20;;;;;;4923059;29;20078;-76
2022/06/29 05:27:50;;;;;;;8.00;2.60;;;16.70;62.30;;;;;;4942154;28;20383;-76
2022/06/29 05:30:16;;;;;;;5.15;1.88;;;16.80;62.30;;;;;;4942599;28;20054;-75
2022/06/29 05:32:43;;;;;;;6.05;2.03;;;16.90;62.40;;;;;;4942849;28;20032;-75
2022/06/29 05:35:10;;;;;;;5.72;2.60;;;17.00;62.40;;;;;;4901545;29;20122;-74
2022/06/29 05:37:36;;;;;;;6.15;2.00;;;17.10;62.40;;;;;;4938918;28;20035;-76
2022/06/29 05:40:02;;;;;;;5.90;1.92;;;17.20;62.40;;;;;;4938656;28;20042;-76
2022/06/29 05:42:28;;;;;;;6.90;1.90;;;17.50;62.70;;;;;;4911523;29;20067;-77
2022/06/29 05:44:55;;;;;;;4.32;1.92;;;17.70;62.70;;;;;;4938264;28;20051;-76
2022/06/29 05:47:21;;;;;;;6.68;1.85;;;18.00;62.80;;;;;;4921790;29;20059;-76
2022/06/29 05:49:47;;;;;;;5.88;3.13;;;18.30;62.90;;;;;;4942726;28;20047;-76
2022/06/29 05:52:14;;;;;;;4.97;1.65;;;18.60;62.90;;;;;;4943124;28;20054;-75
2022/06/29 05:54:40;;;;;;;4.85;2.10;;;18.90;62.70;;;;;;4943782;29;20042;-75
2022/06/29 05:57:06;;;;;;;6.07;2.63;;;19.30;62.80;;;;;;4944720;28;20045;-76
2022/06/29 05:59:33;;;;;;;8.25;3.03;;;19.70;62.90;;;;;;4936554;28;20024;-75
2022/06/29 06:01:59;;;;;;;7.25;1.52;;;20.10;62.80;;;;;;4923627;28;20055;-75
2022/06/29 06:04:25;;;;;;;3.42;1.48;;;20.50;62.70;;;;;;4944424;28;20058;-76
2022/06/29 06:06:52;;;;;;;4.28;1.75;;;21.00;62.80;;;;;;4935623;28;20105;-77
2022/06/29 06:09:21;;;;;;;6.07;1.73;;;21.30;62.70;;;;;;4936470;28;20035;-82
2022/06/29 06:11:47;;;;;;;7.10;2.53;;;21.50;62.40;;;;;;4919290;29;20034;-76
2022/06/29 06:14:12;;;;;;;5.97;1.80;;;21.70;62.40;;;;;;4933932;28;20094;-75
2022/06/29 06:16:38;;;;;;;4.65;2.10;;;21.70;62.30;;;;;;4919202;28;20440;-76
2022/06/29 06:19:05;;;;;;;8.10;3.03;;;21.60;62.00;;;;;;4941801;28;20276;-76
2022/06/29 06:21:30;;;;;;;3.80;1.73;;;21.60;62.10;;;;;;4909859;28;20188;-74
2022/06/29 06:23:56;;;;;;;4.93;2.25;;;21.50;61.90;;;;;;4943918;28;20468;-74
2022/06/29 06:26:23;;;;;;;6.80;1.63;;;21.40;61.80;;;;;;4939042;28;20031;-76
2022/06/29 06:28:52;;;;;;;5.85;1.63;;;21.40;61.80;;;;;;4936642;28;20035;-74
2022/06/29 06:31:18;;;;;;;7.38;2.60;;;21.30;61.70;;;;;;4933767;28;20023;-74
2022/06/29 06:33:44;;;;;;;5.00;1.95;;;21.20;61.70;;;;;;4933250;28;20379;-75
2022/06/29 06:36:10;;;;;;;6.32;2.45;;;21.10;61.60;;;;;;4937860;28;20147;-74
2022/06/29 06:38:36;;;;;;;4.88;1.67;;;21.00;61.50;;;;;;4917659;29;20201;-74
2022/06/29 06:43:46;;;;;;;6.90;1.70;;;20.80;61.30;;;;;;4940769;28;20062;-77
2022/06/29 06:46:12;;;;;;;6.88;2.00;;;20.70;61.20;;;;;;4937916;28;20055;-77
2022/06/29 06:48:38;;;;;;;8.02;2.20;;;20.60;61.10;;;;;;4937222;28;20127;-77
2022/06/29 06:51:04;;;;;;;5.95;1.95;;;20.60;61.10;;;;;;4931927;28;20118;-77
2022/06/29 06:53:30;;;;;;;6.78;2.55;;;20.50;61.00;;;;;;4935579;28;20225;-77
2022/06/29 06:55:57;;;;;;;6.82;2.20;;;20.50;61.00;;;;;;4942737;28;20039;-74
2022/06/29 06:58:23;;;;;;;6.60;2.03;;;20.50;61.00;;;;;;4937447;28;20022;-75
2022/06/29 07:00:48;;;;;;;8.43;2.58;;;20.40;60.80;;;;;;4910069;28;20023;-75
2022/06/29 07:03:14;;;;;;;5.88;1.80;;;20.40;60.80;;;;;;4938985;28;20046;-76
2022/06/29 07:05:40;;;;;;;5.07;2.30;;;20.40;60.80;;;;;;4942723;28;20345;-75
2022/06/29 07:08:07;;;;;;;4.57;1.83;;;20.40;60.80;;;;;;4935685;28;20038;-76
2022/06/29 07:10:33;;;;;;;4.90;1.90;;;20.40;60.80;;;;;;4938500;28;20039;-75
2022/06/29 07:12:59;;;;;;;6.05;1.65;;;20.40;60.80;;;;;;4935940;28;20039;-76
2022/06/29 07:15:24;;;;;;;4.93;2.05;;;20.30;60.60;;;;;;4917183;29;20090;-76
2022/06/29 07:17:50;;;;;;;6.50;2.15;;;20.40;60.80;;;;;;4942152;28;20126;-75
2022/06/29 07:20:16;;;;;;;8.18;2.33;;;20.40;60.70;;;;;;4920298;29;20118;-76
2022/06/29 07:22:42;;;;;;;6.15;1.58;;;20.50;60.80;;;;;;4920147;28;20142;-77
2022/06/29 07:25:08;;;;;;;6.35;2.65;;;20.50;60.60;;;;;;4932439;28;20030;-75
2022/06/29 07:27:34;;;;;;;5.18;1.92;;;20.60;60.60;;;;;;4903034;28;20407;-76
2022/06/29 07:30:00;;;;;;;7.70;2.00;;;20.70;60.70;;;;;;4933922;28;20071;-75
2022/06/29 07:32:26;;;;;;;4.30;2.00;;;20.70;60.50;;;;;;4923728;28;20031;-74
2022/06/29 07:34:51;;;;;;;6.70;2.10;;;20.90;60.60;;;;;;4931259;28;20039;-74
2022/06/29 07:37:17;;;;;;;9.10;2.25;;;21.00;60.50;;;;;;4939362;28;20415;-75
2022/06/29 07:39:43;;;;;;;6.35;1.90;;;21.10;60.40;;;;;;4919941;29;20034;-75
2022/06/29 07:42:09;;;;;;;5.03;1.55;;;21.10;60.30;;;;;;4914855;29;20415;-76
2022/06/29 07:44:35;;;;;;;3.80;1.52;;;21.10;60.30;;;;;;4928513;28;20051;-74
2022/06/29 07:47:01;;;;;;;9.10;2.80;;;21.20;60.40;;;;;;4942950;28;20051;-75
2022/06/29 07:49:27;;;;;;;4.05;1.70;;;21.10;60.30;;;;;;4933858;28;20039;-74
2022/06/29 07:51:53;;;;;;;5.68;2.53;;;21.20;60.40;;;;;;4936481;28;20035;-75
2022/06/29 07:54:19;;;;;;;4.47;1.90;;;21.10;60.10;;;;;;4927234;29;20032;-75
2022/06/29 07:56:45;;;;;;;4.80;1.90;;;21.30;60.40;;;;;;4937391;29;20062;-75
2022/06/29 07:59:11;;;;;;;3.60;1.70;;;21.40;60.30;;;;;;4940372;28;20066;-76
2022/06/29 08:01:37;;;;;;;5.28;2.08;;;21.60;60.20;;;;;;4937361;28;20039;-75
2022/06/29 08:04:03;;;;;;;6.45;2.35;;;21.70;60.10;;;;;;4947648;28;20043;-75
2022/06/29 08:06:29;;;;;;;7.15;1.85;;;22.00;60.30;;;;;;4944905;28;20032;-75
2022/06/29 08:08:55;;;;;;;6.68;3.10;;;22.20;59.90;;;;;;4939277;28;20047;-75
2022/06/29 08:11:21;;;;;;;5.22;2.00;;;22.40;60.00;;;;;;4950819;28;20034;-74
2022/06/29 08:13:47;;;;;;;5.22;2.47;;;22.50;59.70;;;;;;4948579;28;20031;-76
2022/06/29 08:16:13;;;;;;;6.18;2.65;;;22.60;59.80;;;;;;4948046;28;20042;-75
2022/06/29 08:18:39;;;;;;;7.63;1.92;;;22.60;59.70;;;;;;4924749;29;20036;-74
2022/06/29 08:21:05;;;;;;;6.63;2.50;;;22.60;59.70;;;;;;4927722;29;20035;-75
2022/06/29 08:23:31;;;;;;;6.50;2.40;;;22.80;59.90;;;;;;4929617;29;20050;-75
2022/06/29 08:25:57;;;;;;;7.13;2.97;;;23.10;59.90;;;;;;4958704;28;20038;-75
2022/06/29 08:28:27;;;;;;;6.53;2.20;;;23.50;60.00;;;;;;4932822;28;20034;-75
2022/06/29 08:30:54;;;;;;;5.03;1.83;;;23.80;59.70;;;;;;4943940;28;20083;-74
2022/06/29 08:33:21;;;;;;;5.18;2.25;;;24.20;59.60;;;;;;4947077;28;20034;-76
2022/06/29 08:35:50;;;;;;;6.32;1.95;;;24.50;59.50;;;;;;4928595;29;20115;-75
2022/06/29 08:38:17;;;;;;;6.55;1.80;;;25.00;59.50;;;;;;4947773;28;20035;-74
2022/06/29 08:40:45;;;;;;;5.20;1.55;;;25.40;58.70;;;;;;4936097;28;20083;-75
2022/06/29 08:43:12;;;;;;;5.13;1.70;;;25.90;58.00;;;;;;4937852;28;20291;-76
2022/06/29 08:45:43;;;;;;;7.70;2.40;;;26.20;57.30;;;;;;4944234;28;20028;-76
2022/06/29 08:48:11;;;;;;;5.63;1.92;;;26.40;57.00;;;;;;4926419;29;20492;-76
2022/06/29 08:50:40;;;;;;;4.13;1.40;;;26.40;56.90;;;;;;4937989;28;20473;-77
2022/06/29 08:53:08;;;;;;;4.68;1.65;;;26.30;56.70;;;;;;4940569;28;20051;-76
2022/06/29 08:55:40;;;;;;;5.63;1.90;;;26.20;56.60;;;;;;4945873;28;20504;-75
2022/06/29 08:58:07;;;;;;;5.90;2.40;;;26.10;56.80;;;;;;4943885;28;20927;-75
2022/06/29 09:00:36;;;;;;;6.32;2.30;;;25.80;57.00;;;;;;4943732;28;20046;-75
2022/06/29 09:03:04;;;;;;;9.45;2.67;;;25.60;57.20;;;;;;4936060;28;20037;-76
2022/06/29 09:05:33;;;;;;;5.15;2.45;;;25.30;57.30;;;;;;4924821;29;20038;-74
2022/06/29 09:08:00;;;;;;;5.13;2.38;;;25.10;57.60;;;;;;4938412;28;20078;-76
2022/06/29 09:10:29;;;;;;;5.38;1.95;;;24.80;57.70;;;;;;4928646;29;20050;-76
2022/06/29 09:12:57;;;;;;;4.25;2.40;;;24.70;57.80;;;;;;4940945;28;20039;-75
2022/06/29 09:15:38;;;;;;;3.15;1.63;;;24.60;58.00;;;;;;4942856;28;20024;-74
2022/06/29 09:18:30;;;;;;;4.55;2.30;;;24.90;58.00;;;;;;4940942;28;20038;-77
2022/06/29 09:21:00;;;;;;;4.32;1.70;;;25.30;57.40;;;;;;4930935;28;20027;-75
2022/06/29 09:23:27;;;;;;;6.82;2.13;;;25.50;57.00;;;;;;4947735;29;20578;-76
2022/06/29 09:25:53;;;;;;;3.63;1.42;;;25.80;56.70;;;;;;4925618;28;20074;-76
2022/06/29 09:28:21;;;;;;;5.47;1.98;;;26.00;56.20;;;;;;4940189;28;20047;-75
2022/06/29 09:30:47;;;;;;;5.22;1.95;;;26.10;56.00;;;;;;4942317;28;20035;-74
2022/06/29 09:33:13;;;;;;;4.10;1.80;;;26.20;55.80;;;;;;4941109;28;20034;-77
2022/06/29 09:35:40;;;;;;;3.30;1.60;;;26.20;55.70;;;;;;4940535;28;20127;-76
2022/06/29 09:38:22;;;;;;;4.50;1.70;;;26.30;55.70;;;;;;4939742;28;20054;-78
2022/06/29 09:41:08;;;;;;;2.87;1.37;;;26.30;55.50;;;;;;4931812;28;20019;-77
2022/06/29 09:43:43;;;;;;;4.15;1.58;;;26.40;55.50;;;;;;4937047;28;20121;-76
2022/06/29 09:46:14;;;;;;;3.97;0.90;;;26.80;55.30;;;;;;4939960;28;20038;-75
2022/06/29 09:48:42;;;;;;;2.83;0.90;;;27.10;54.70;;;;;;4936514;28;20939;-75
2022/06/29 09:54:05;;;;;;;3.55;1.38;;;27.50;53.90;;;;;;4923008;28;20043;-75
2022/06/29 09:56:32;;;;;;;3.38;1.38;;;27.60;53.40;;;;;;4934211;28;20031;-75
2022/06/29 09:58:59;;;;;;;2.30;1.27;;;27.70;53.20;;;;;;4942171;28;20063;-77
2022/06/29 10:04:13;;;;;;;2.60;1.25;;;28.00;52.80;;;;;;4927563;28;20035;-76
2022/06/29 10:06:41;;;;;;;3.15;0.82;;;28.10;52.70;;;;;;4936816;28;20118;-76
2022/06/29 10:09:07;;;;;;;1.80;0.90;;;28.20;52.60;;;;;;4923215;29;20043;-77
2022/06/29 10:14:54;;;;;;;2.85;0.60;;;28.20;52.10;;;;;;4939602;28;20396;-75
2022/06/29 10:17:49;;;;;;;1.85;0.80;;;28.00;52.20;;;;;;4942043;28;20582;-75
2022/06/29 10:20:41;;;;;;;1.88;0.90;;;27.70;52.40;;;;;;4934537;28;20027;-76
2022/06/29 10:23:07;;;;;;;3.40;1.10;;;27.30;52.80;;;;;;4929737;28;20500;-76
2022/06/29 10:25:35;;;;;;;1.77;0.60;;;27.00;53.40;;;;;;4937999;28;20047;-78
2022/06/29 10:28:19;;;;;;;1.90;0.50;;;26.70;53.60;;;;;;4936750;29;20375;-79
2022/06/29 10:30:45;;;;;;;1.85;0.63;;;26.40;53.80;;;;;;4939803;28;20035;-79
2022/06/29 10:33:31;;;;;;;2.65;0.65;;;26.10;54.40;;;;;;4941037;28;20024;-77
2022/06/29 10:36:08;;;;;;;1.77;0.47;;;25.90;54.40;;;;;;4946987;28;20519;-74
2022/06/29 10:39:04;;;;;;;1.98;0.63;;;25.70;54.70;;;;;;4943970;28;20031;-77
2022/06/29 10:44:54;;;;;;;1.80;0.60;;;25.40;54.90;;;;;;4932971;28;20107;-76
2022/06/29 10:47:23;;;;;;;1.00;0.82;;;25.30;55.10;;;;;;4931907;28;20262;-76
2022/06/29 10:50:20;;;;;;;1.77;0.60;;;25.30;55.20;;;;;;4932333;28;20047;-75
2022/06/29 10:52:47;;;;;;;1.30;0.75;;;25.20;55.20;;;;;;4921474;29;20354;-75
2022/06/29 10:55:15;;;;;;;1.83;0.60;;;25.20;55.30;;;;;;4928890;28;20398;-76
2022/06/29 10:57:42;;;;;;;1.27;0.50;;;25.20;55.30;;;;;;4932024;28;20030;-75
2022/06/29 11:00:16;;;;;;;2.22;0.52;;;25.30;55.20;;;;;;4929557;28;20190;-78
2022/06/29 11:02:43;;;;;;;3.17;0.60;;;25.40;55.00;;;;;;4938529;29;20298;-77
2022/06/29 11:05:09;;;;;;;0.95;0.38;;;25.50;54.90;;;;;;4939963;28;20031;-76
2022/06/29 11:13:31;;;;;;;0.77;0.40;;;26.00;54.60;;;;;;4865264;29;20028;-75
2022/06/29 11:16:00;;;;;;;0.63;0.30;;;26.30;54.10;;;;;;4912030;29;20093;-77
2022/06/29 11:18:32;;;;;;;1.55;0.30;;;26.40;53.70;;;;;;4926853;29;20043;-76
2022/06/29 11:21:03;;;;;;;0.70;0.40;;;26.60;53.60;;;;;;4930326;29;20027;-76
2022/06/29 11:23:35;;;;;;;0.95;0.25;;;26.60;53.50;;;;;;4935071;28;20035;-76
2022/06/29 11:26:06;;;;;;;0.55;0.25;;;26.80;53.30;;;;;;4933563;28;20031;-77
2022/06/29 11:28:40;;;;;;;1.52;0.55;;;27.00;52.90;;;;;;4928215;28;20027;-76
2022/06/29 11:31:08;;;;;;;1.10;0.30;;;27.10;52.70;;;;;;4939114;28;20093;-75
2022/06/29 11:33:37;;;;;;;0.50;0.20;;;27.20;52.70;;;;;;4935337;28;20032;-75
2022/06/29 11:36:07;;;;;;;2.15;0.50;;;27.30;52.50;;;;;;4932196;28;20127;-75
2022/06/29 11:38:40;;;;;;;1.30;0.35;;;27.60;52.10;;;;;;4931599;28;20035;-75
2022/06/29 11:41:17;;;;;;;0.98;0.40;;;28.10;51.60;;;;;;4939378;28;20050;-75
2022/06/29 11:43:43;;;;;;;1.20;0.40;;;28.50;50.90;;;;;;4916333;29;20047;-76
2022/06/29 11:46:21;;;;;;;1.00;0.50;;;29.00;50.40;;;;;;4933731;28;20035;-75
2022/06/29 11:51:52;;;;;;;0.70;0.30;;;29.80;49.20;;;;;;4931938;28;20032;-78
2022/06/29 11:54:56;;;;;;;0.95;0.47;;;30.10;48.60;;;;;;4915558;28;20031;-77
2022/06/29 11:57:23;;;;;;;0.90;0.40;;;30.30;48.10;;;;;;4895626;29;20042;-77
2022/06/29 11:59:49;;;;;;;0.88;0.40;;;30.30;48.10;;;;;;4949200;28;20030;-76
2022/06/29 12:02:16;;;;;;;0.93;0.32;;;30.40;48.20;;;;;;4909889;29;20035;-78
2022/06/29 12:04:44;;;;;;;2.78;0.85;;;30.40;47.90;;;;;;4943072;28;20032;-76
2022/06/29 12:07:12;;;;;;;1.40;0.47;;;30.50;48.00;;;;;;4906845;29;20055;-77
2022/06/29 12:09:40;;;;;;;1.58;0.45;;;30.60;47.70;;;;;;4916254;29;20070;-77
2022/06/29 12:12:10;;;;;;;1.25;0.35;;;30.50;47.70;;;;;;4942736;28;20031;-76
2022/06/29 12:14:40;;;;;;;1.02;0.60;;;30.40;48.40;;;;;;4942863;28;20031;-76
2022/06/29 12:17:06;;;;;;;1.20;0.30;;;30.20;48.00;;;;;;4922264;29;20035;-76
2022/06/29 12:19:33;;;;;;;0.98;0.50;;;29.90;48.20;;;;;;4919590;29;20024;-78
2022/06/29 12:21:59;;;;;;;0.45;0.28;;;29.70;48.60;;;;;;4943263;28;20043;-76
2022/06/29 12:24:26;;;;;;;1.25;0.60;;;29.50;48.80;;;;;;4940392;28;20032;-77
2022/06/29 12:26:52;;;;;;;0.77;0.50;;;29.40;49.00;;;;;;4902877;28;20024;-76
2022/06/29 12:29:19;;;;;;;0.50;0.30;;;29.30;49.20;;;;;;4937312;28;20048;-76
2022/06/29 12:31:45;;;;;;;0.95;0.30;;;29.20;49.20;;;;;;4939719;28;20023;-74
2022/06/29 12:34:12;;;;;;;0.57;0.30;;;29.10;50.00;;;;;;4938552;28;20059;-76
2022/06/29 12:36:39;;;;;;;1.65;0.40;;;29.00;49.60;;;;;;4920345;28;20024;-76
2022/06/29 12:39:06;;;;;;;1.13;0.30;;;28.80;49.70;;;;;;4939371;28;20031;-75
2022/06/29 12:41:33;;;;;;;3.10;0.57;;;28.70;49.80;;;;;;4937552;28;20479;-76
2022/06/29 12:44:02;;;;;;;0.60;0.32;;;28.50;49.90;;;;;;4939918;28;20078;-77
2022/06/29 12:46:33;;;;;;;1.17;0.65;;;28.50;50.10;;;;;;4920176;28;20027;-75
2022/06/29 12:49:01;;;;;;;1.10;0.40;;;28.40;50.20;;;;;;4940591;28;20112;-76
2022/06/29 12:51:27;;;;;;;1.15;0.52;;;28.30;50.20;;;;;;4942473;28;20515;-77
2022/06/29 12:53:53;;;;;;;1.67;0.82;;;28.40;50.30;;;;;;4913407;29;20031;-77
2022/06/29 12:56:19;;;;;;;1.05;0.50;;;28.40;50.30;;;;;;4924054;29;20398;-75
2022/06/29 12:58:45;;;;;;;2.70;0.82;;;28.30;50.30;;;;;;4925171;29;20031;-77
2022/06/29 13:01:11;;;;;;;1.98;0.50;;;28.20;50.30;;;;;;4938984;28;20321;-77
2022/06/29 13:03:37;;;;;;;1.63;0.45;;;28.10;50.50;;;;;;4921658;29;20035;-75
2022/06/29 13:06:03;;;;;;;1.92;0.50;;;28.00;50.70;;;;;;4921955;28;20114;-75
2022/06/29 13:08:29;;;;;;;1.08;0.60;;;27.70;50.80;;;;;;4926141;28;20036;-77
2022/06/29 13:10:56;;;;;;;0.90;0.52;;;27.60;51.10;;;;;;4939745;28;20043;-77
2022/06/29 13:13:21;;;;;;;1.13;0.50;;;27.40;51.40;;;;;;4922794;29;20028;-76
2022/06/29 13:15:47;;;;;;;1.95;0.55;;;27.20;51.50;;;;;;4918617;29;20405;-75
2022/06/29 13:18:15;;;;;;;1.27;0.50;;;27.10;51.80;;;;;;4925443;29;20066;-77
2022/06/29 13:20:41;;;;;;;1.95;0.50;;;26.90;51.90;;;;;;4919311;29;20147;-77
2022/06/29 13:23:07;;;;;;;1.25;0.30;;;26.80;52.10;;;;;;4929931;28;20559;-76
2022/06/29 13:25:33;;;;;;;1.48;0.88;;;26.80;52.30;;;;;;4936206;28;20047;-76
2022/06/29 13:27:59;;;;;;;1.15;0.40;;;26.80;52.40;;;;;;4936583;28;20122;-76